createdAt,value
2023-10-21T06:04:06.187Z,17.10
2023-10-21T06:07:28.567Z,17.07
2023-10-21T06:10:32.788Z,17.11
2023-10-21T06:13:40.353Z,17.02
2023-10-21T06:16:46.953Z,17.10
2023-10-21T06:19:53.623Z,17.09
2023-10-21T06:22:56.885Z,16.97
2023-10-21T06:26:00.248Z,17.16
2023-10-21T06:29:19.498Z,17.11
2023-10-21T06:32:23.387Z,17.02
2023-10-21T06:35:29.604Z,17.18
2023-10-21T06:38:33.835Z,17.12
2023-10-21T06:41:37.234Z,17.06
2023-10-21T06:44:41.915Z,16.98
2023-10-21T06:47:44.882Z,17.13
2023-10-21T06:50:49.464Z,17.17
2023-10-21T06:53:52.622Z,17.03
2023-10-21T06:56:57.093Z,17.11
2023-10-21T07:00:00.829Z,17.10
2023-10-21T07:03:05.468Z,17.09
2023-10-21T07:06:08.588Z,17.08
2023-10-21T07:09:12.867Z,16.88
2023-10-21T07:12:16.578Z,16.92
2023-10-21T07:15:20.550Z,17.03
2023-10-21T07:18:23.589Z,17.08
2023-10-21T07:21:27.300Z,16.97
2023-10-21T07:24:30.704Z,16.99
2023-10-21T07:28:14.474Z,16.84
2023-10-21T07:31:17.512Z,16.84
2023-10-21T07:34:23.384Z,16.99
2023-10-21T07:37:30.133Z,16.97
2023-10-21T07:40:34.516Z,17.01
2023-10-21T07:43:58.837Z,16.97
2023-10-21T07:47:01.840Z,17.06
2023-10-21T07:50:08.855Z,17.09
2023-10-21T07:53:12.224Z,17.05
2023-10-21T07:56:16.249Z,17.17
2023-10-21T07:59:20.624Z,17.21
2023-10-21T08:02:27.411Z,17.31
2023-10-21T08:05:31.094Z,17.43
2023-10-21T08:08:35.592Z,17.52
2023-10-21T08:11:48.851Z,17.55
2023-10-21T08:14:53.128Z,17.61
2023-10-21T08:18:05.279Z,17.64
2023-10-21T08:21:29.153Z,17.75
2023-10-21T08:24:33.696Z,17.68
2023-10-21T08:27:38.837Z,17.71
2023-10-21T08:31:09.654Z,17.75
2023-10-21T08:34:16.893Z,17.81
2023-10-21T08:37:20.369Z,18.02
2023-10-21T08:40:48.302Z,18.03
2023-10-21T08:44:16.576Z,18.18
2023-10-21T08:47:23.981Z,18.07
2023-10-21T08:50:29.953Z,18.12
2023-10-21T08:53:35.042Z,18.14
2023-10-21T08:56:44.270Z,18.11
2023-10-21T08:59:47.351Z,18.18
2023-10-21T09:02:50.667Z,18.12
2023-10-21T09:06:28.196Z,17.96
2023-10-21T09:09:31.669Z,17.94
2023-10-21T09:12:55.419Z,17.98
2023-10-21T09:15:59.417Z,18.01
2023-10-21T09:19:13.490Z,18.18
2023-10-21T09:22:23.893Z,18.12
2023-10-21T09:25:28.398Z,18.19
2023-10-21T09:28:33.866Z,18.23
2023-10-21T09:31:50.085Z,18.35
2023-10-21T09:34:53.901Z,18.39
2023-10-21T09:38:18.196Z,18.54
2023-10-21T09:41:22.962Z,18.42
2023-10-21T09:44:26.844Z,18.34
2023-10-21T09:47:30.982Z,18.65
2023-10-21T09:50:37.288Z,18.65
2023-10-21T09:53:46.898Z,18.81
2023-10-21T09:56:54.002Z,18.74
2023-10-21T09:59:58.818Z,18.76
2023-10-21T10:03:03.716Z,18.91
2023-10-21T10:06:08.959Z,19.06
2023-10-21T10:09:14.302Z,19.10
2023-10-21T10:12:25.565Z,19.31
2023-10-21T10:15:35.472Z,19.42
2023-10-21T10:19:00.129Z,19.50
2023-10-21T10:22:17.897Z,19.44
2023-10-21T10:25:32.089Z,19.43
2023-10-21T10:28:40.034Z,19.37
2023-10-21T10:31:49.863Z,19.01
2023-10-21T10:34:54.542Z,18.81
2023-10-21T10:38:03.380Z,18.93
2023-10-21T10:41:08.032Z,18.94
2023-10-21T10:44:11.693Z,18.85
2023-10-21T10:47:15.078Z,18.82
2023-10-21T10:50:24.483Z,18.72
2023-10-21T10:53:28.565Z,18.69
2023-10-21T10:56:42.166Z,18.76
2023-10-21T11:00:27.326Z,18.80
2023-10-21T11:03:37.673Z,18.94
2023-10-21T11:06:46.509Z,18.96
2023-10-21T11:10:00.249Z,18.90
2023-10-21T11:13:06.302Z,18.91
2023-10-21T11:16:09.640Z,18.78
2023-10-21T11:19:12.609Z,18.80
2023-10-21T11:22:28.261Z,18.58
2023-10-21T11:25:32.827Z,18.63
2023-10-21T11:28:41.439Z,18.61
2023-10-21T11:31:47.787Z,18.54
2023-10-21T11:34:51.229Z,18.55
2023-10-21T11:37:56.757Z,18.43
2023-10-21T11:41:01.836Z,18.50
2023-10-21T11:44:05.620Z,18.39
2023-10-21T11:47:11.938Z,18.40
2023-10-21T11:50:14.725Z,18.43
2023-10-21T11:53:20.536Z,18.52
2023-10-21T11:56:42.463Z,18.71
2023-10-21T12:00:04.170Z,18.82
2023-10-21T12:03:31.914Z,18.51
2023-10-21T12:06:56.690Z,18.58
2023-10-21T12:10:23.075Z,18.33
2023-10-21T12:13:27.664Z,18.21
2023-10-21T12:16:58.224Z,18.18
2023-10-21T12:20:30.912Z,18.23
2023-10-21T12:23:54.324Z,18.15
2023-10-21T12:27:18.281Z,18.07
2023-10-21T12:30:39.326Z,18.00
2023-10-21T12:34:01.489Z,18.01
2023-10-21T12:37:09.501Z,17.82
2023-10-21T12:40:23.321Z,17.81
2023-10-21T12:43:35.340Z,17.66
2023-10-21T12:46:42.577Z,17.86
2023-10-21T12:49:47.005Z,17.78
2023-10-21T12:52:50.273Z,17.67
2023-10-21T12:55:53.676Z,17.69
2023-10-21T12:58:57.526Z,17.66
2023-10-21T13:02:12.909Z,17.50
2023-10-21T13:05:29.068Z,17.47
2023-10-21T13:08:52.541Z,17.44
2023-10-21T13:11:57.420Z,17.52
2023-10-21T13:15:25.560Z,17.51
2023-10-21T13:19:00.905Z,17.48
2023-10-21T13:22:07.312Z,17.37
2023-10-21T13:25:18.876Z,17.59
2023-10-21T13:28:37.907Z,17.36
2023-10-21T13:31:51.002Z,17.51
2023-10-21T13:34:55.358Z,17.73
2023-10-21T13:37:59.025Z,17.94
2023-10-21T13:41:06.161Z,17.88
2023-10-21T13:44:13.460Z,17.82
2023-10-21T13:47:36.347Z,17.91
2023-10-21T13:50:40.882Z,17.63
2023-10-21T13:53:47.695Z,17.52
2023-10-21T13:56:51.142Z,17.47
2023-10-21T13:59:56.415Z,17.58
2023-10-21T14:03:13.481Z,17.46
2023-10-21T14:06:20.816Z,17.63
2023-10-21T14:09:25.168Z,17.74
2023-10-21T14:12:29.297Z,17.49
2023-10-21T14:15:33.897Z,17.58
2023-10-21T14:18:37.769Z,17.58
2023-10-21T14:21:40.913Z,17.48
2023-10-21T14:24:44.474Z,17.25
2023-10-21T14:27:50.354Z,17.38
2023-10-21T14:30:55.900Z,17.31
2023-10-21T14:34:01.744Z,17.17
2023-10-21T14:37:09.096Z,17.38
2023-10-21T14:40:12.486Z,17.27
2023-10-21T14:43:18.109Z,17.52
2023-10-21T14:46:21.080Z,17.30
2023-10-21T14:49:32.143Z,17.12
2023-10-21T14:52:35.257Z,17.13
2023-10-21T14:55:51.622Z,17.15
2023-10-21T14:59:06.716Z,17.16
2023-10-21T15:02:10.570Z,17.08
2023-10-21T15:05:14.486Z,16.98
2023-10-21T15:08:25.348Z,16.90
2023-10-21T15:11:29.508Z,17.14
2023-10-21T15:14:45.925Z,17.06
2023-10-21T15:17:55.244Z,17.02
2023-10-21T15:21:08.474Z,16.67
2023-10-21T15:24:11.962Z,16.83
2023-10-21T15:27:15.279Z,16.81
2023-10-21T15:30:24.188Z,17.00
2023-10-21T15:33:29.918Z,16.83
2023-10-21T15:36:34.626Z,16.82
2023-10-21T15:39:39.515Z,16.86
2023-10-21T15:42:46.924Z,16.96
2023-10-21T15:46:06.111Z,16.93
2023-10-21T15:49:09.795Z,17.00
2023-10-21T15:52:13.051Z,16.89
2023-10-21T15:55:19.588Z,16.81
2023-10-21T15:58:22.621Z,16.90
2023-10-21T16:01:25.437Z,16.82
2023-10-21T16:04:30.305Z,16.75
2023-10-21T16:07:46.373Z,16.64
2023-10-21T16:11:05.282Z,16.63
2023-10-21T16:14:29.685Z,16.59
2023-10-21T16:17:34.933Z,16.51
2023-10-21T16:20:37.761Z,16.48
2023-10-21T16:23:40.853Z,16.44
2023-10-21T16:26:45.314Z,16.45
2023-10-21T16:29:50.329Z,16.41
2023-10-21T16:32:53.927Z,16.44
2023-10-21T16:35:58.502Z,16.38
2023-10-21T16:39:01.801Z,16.31
2023-10-21T16:42:07.011Z,16.14
2023-10-21T16:45:10.629Z,16.00
2023-10-21T16:48:17.486Z,16.06
2023-10-21T16:51:22.115Z,16.08
2023-10-21T16:54:30.252Z,16.01
2023-10-21T16:57:37.612Z,16.16
2023-10-21T17:00:41.939Z,16.23
2023-10-21T17:03:51.759Z,16.25
2023-10-21T17:07:16.433Z,16.30
2023-10-21T17:10:21.965Z,15.99
2023-10-21T17:13:36.579Z,15.88
2023-10-21T17:16:39.944Z,15.84
2023-10-21T17:19:47.988Z,15.97
2023-10-21T17:22:52.541Z,15.92
2023-10-21T17:25:56.986Z,16.09
2023-10-21T17:29:00.223Z,16.15
2023-10-21T17:32:08.714Z,15.98
2023-10-21T17:35:12.032Z,15.73
2023-10-21T17:38:25.709Z,15.71
2023-10-21T17:41:29.028Z,15.81
2023-10-21T17:44:33.648Z,16.07
2023-10-21T17:47:40.562Z,15.72
2023-10-21T17:50:44.060Z,15.84
2023-10-21T17:53:51.780Z,15.90
2023-10-21T17:56:55.326Z,15.91
2023-10-21T17:59:58.844Z,15.87
2023-10-21T18:03:03.705Z,15.82
2023-10-21T18:06:10.529Z,15.70
2023-10-21T18:09:14.804Z,15.47
2023-10-21T18:12:18.127Z,15.40
2023-10-21T18:15:23.887Z,15.51
2023-10-21T18:18:28.010Z,15.57
2023-10-21T18:21:31.279Z,15.84
2023-10-21T18:24:38.510Z,15.67
2023-10-21T18:27:45.192Z,15.32
2023-10-21T18:30:49.638Z,15.32
2023-10-21T18:33:55.611Z,15.40
2023-10-21T18:36:59.404Z,15.37
2023-10-21T18:40:03.010Z,15.37
2023-10-21T18:43:07.932Z,15.24
2023-10-21T18:46:17.115Z,15.15
2023-10-21T18:49:21.794Z,15.13
2023-10-21T18:52:26.121Z,15.13
2023-10-21T18:55:30.403Z,15.24
2023-10-21T18:58:33.799Z,15.11
2023-10-21T19:01:38.305Z,15.08
2023-10-21T19:04:43.428Z,15.35
2023-10-21T19:07:47.806Z,15.40
2023-10-21T19:47:37.342Z,15.48
2023-10-21T19:50:43.407Z,15.57
2023-10-21T19:53:46.543Z,15.44
2023-10-21T19:56:54.489Z,15.34
2023-10-21T19:59:57.908Z,15.32
2023-10-21T20:03:16.201Z,15.30
2023-10-21T20:06:22.042Z,15.38
2023-10-21T20:09:27.878Z,15.29
2023-10-21T20:12:31.374Z,15.22
2023-10-21T20:15:36.250Z,15.20
2023-10-21T20:18:41.496Z,15.20
2023-10-21T20:21:44.499Z,15.24
2023-10-21T20:24:47.936Z,15.26
2023-10-21T20:27:50.775Z,15.28
2023-10-21T20:31:01.792Z,15.30
2023-10-21T20:34:05.835Z,15.44
2023-10-21T20:37:09.388Z,15.31
2023-10-21T20:40:12.929Z,15.50
2023-10-21T20:43:17.207Z,15.71
2023-10-21T20:46:20.054Z,15.64
2023-10-21T20:49:23.209Z,15.62
2023-10-21T20:52:28.459Z,15.35
2023-10-21T20:55:38.716Z,15.47
2023-10-21T20:58:41.414Z,15.65
2023-10-21T21:01:44.872Z,15.42
2023-10-21T21:04:48.910Z,15.38
2023-10-21T21:07:54.033Z,15.39
2023-10-21T21:10:59.980Z,15.38
2023-10-21T21:14:04.129Z,15.45
2023-10-21T21:17:10.179Z,15.51
2023-10-21T21:20:13.603Z,15.40
2023-10-21T21:23:21.932Z,15.58
2023-10-21T21:26:25.100Z,15.44
2023-10-21T21:29:28.492Z,15.72
2023-10-21T21:32:37.115Z,15.48
2023-10-21T21:35:40.091Z,15.43
2023-10-21T21:38:43.187Z,15.41
2023-10-21T21:41:46.962Z,15.38
2023-10-21T21:44:51.197Z,15.51
